Time;durP1;ratioP1;P1;durP2;ratioP2;P2;SDS_P1;SDS_P2;PMS_P1;PMS_P2;Temp;Humidity;BMP_temperature;BMP_pressure;BME280_temperature;BME280_humidity;BME280_pressure;Samples;Min_cycle;Max_cycle;Signal;HPM_P1;HPM_P2
2021/06/10 00:01:38;;;;;;;8.98;8.18;;;16.90;1.00;;;;;;5097082;28;20032;-74
2021/06/10 00:04:04;;;;;;;9.20;8.32;;;16.90;1.00;;;;;;5099847;28;20475;-74
2021/06/10 00:06:30;;;;;;;9.40;8.50;;;16.90;1.00;;;;;;5098688;28;20043;-73
2021/06/10 00:08:55;;;;;;;9.38;8.35;;;16.80;1.00;;;;;;5098774;28;20387;-74
2021/06/10 00:11:21;;;;;;;10.13;9.10;;;16.80;1.00;;;;;;5094703;28;20035;-75
2021/06/10 00:13:46;;;;;;;9.63;8.73;;;16.70;1.00;;;;;;5097276;28;20028;-75
2021/06/10 00:16:12;;;;;;;8.65;7.95;;;16.80;1.00;;;;;;5098268;28;20028;-73
2021/06/10 00:18:38;;;;;;;9.13;8.30;;;16.80;1.00;;;;;;5098138;28;20048;-75
2021/06/10 00:21:05;;;;;;;9.63;8.68;;;16.80;1.00;;;;;;5096169;28;20027;-74
2021/06/10 00:23:30;;;;;;;9.77;9.05;;;16.70;1.00;;;;;;5096201;28;20111;-75
2021/06/10 00:25:56;;;;;;;9.63;8.82;;;16.60;1.00;;;;;;5095884;28;20066;-74
2021/06/10 00:28:21;;;;;;;9.85;9.05;;;16.60;1.00;;;;;;5103652;28;20599;-73
2021/06/10 00:30:47;;;;;;;12.98;9.20;;;16.60;1.00;;;;;;5102310;28;20031;-74
2021/06/10 00:33:12;;;;;;;10.55;9.48;;;16.60;1.00;;;;;;5101782;28;20084;-74
2021/06/10 00:35:38;;;;;;;10.50;9.50;;;16.60;1.00;;;;;;5099228;28;20104;-74
2021/06/10 00:38:04;;;;;;;9.25;8.35;;;16.50;1.00;;;;;;5097110;28;20020;-74
2021/06/10 00:40:32;;;;;;;11.65;9.70;;;16.50;1.00;;;;;;5097056;28;20021;-74
2021/06/10 00:42:58;;;;;;;10.23;9.23;;;16.60;1.00;;;;;;5096151;28;20030;-75
2021/06/10 00:45:25;;;;;;;10.60;9.45;;;16.60;1.00;;;;;;5089401;28;20108;-74
2021/06/10 00:47:51;;;;;;;9.35;8.50;;;16.60;1.00;;;;;;5092703;28;20471;-74
2021/06/10 00:50:31;;;;;;;9.77;8.77;;;16.50;1.00;;;;;;5097348;28;20020;-74
2021/06/10 00:52:57;;;;;;;10.18;9.38;;;16.50;1.00;;;;;;5097372;28;20352;-74
2021/06/10 00:55:23;;;;;;;10.85;9.88;;;16.40;1.00;;;;;;5096861;28;20020;-73
2021/06/10 00:57:49;;;;;;;11.43;9.38;;;16.40;1.00;;;;;;5097126;28;20073;-73
2021/06/10 01:00:16;;;;;;;11.50;10.35;;;16.40;1.00;;;;;;5096954;28;20103;-74
2021/06/10 01:02:41;;;;;;;11.30;9.52;;;16.40;1.00;;;;;;5091612;28;20039;-74
2021/06/10 01:05:10;;;;;;;11.13;10.07;;;16.40;1.00;;;;;;5095988;28;20024;-73
2021/06/10 01:07:49;;;;;;;12.45;11.15;;;16.30;1.00;;;;;;5096478;28;20032;-74
2021/06/10 01:10:38;;;;;;;10.93;10.00;;;16.30;1.00;;;;;;5096043;28;20020;-74
2021/06/10 01:13:09;;;;;;;11.85;10.75;;;16.30;1.00;;;;;;5095850;28;20030;-74
2021/06/10 01:15:41;;;;;;;13.52;12.18;;;16.30;1.00;;;;;;5095556;28;20070;-73
2021/06/10 01:18:09;;;;;;;10.90;9.95;;;16.30;1.00;;;;;;5094821;28;20048;-74
2021/06/10 01:20:35;;;;;;;12.05;10.90;;;16.30;1.00;;;;;;5097584;28;20077;-74
2021/06/10 01:23:08;;;;;;;11.82;10.82;;;16.30;1.00;;;;;;5101284;28;20633;-75
2021/06/10 01:25:33;;;;;;;14.38;12.88;;;16.20;1.00;;;;;;5089781;28;20024;-74
2021/06/10 01:28:24;;;;;;;13.38;12.00;;;16.30;1.00;;;;;;5086798;28;20028;-74
2021/06/10 01:30:58;;;;;;;14.10;12.85;;;16.30;1.00;;;;;;5076503;28;20025;-73
2021/06/10 01:33:48;;;;;;;13.45;12.25;;;16.20;1.00;;;;;;5076480;28;20052;-74
2021/06/10 01:36:24;;;;;;;13.57;11.13;;;16.10;1.00;;;;;;5076051;28;20060;-73
2021/06/10 01:38:53;;;;;;;12.65;11.45;;;16.10;1.00;;;;;;5076382;28;20020;-74
2021/06/10 01:41:20;;;;;;;12.90;11.60;;;16.10;1.00;;;;;;5076236;28;20031;-74
2021/06/10 01:43:47;;;;;;;13.88;12.38;;;16.10;1.00;;;;;;5073282;28;20028;-73
2021/06/10 01:46:13;;;;;;;13.43;11.88;;;16.00;1.00;;;;;;5075689;28;20028;-74
2021/06/10 01:48:46;;;;;;;13.43;11.35;;;16.10;1.00;;;;;;5076550;28;20047;-73
2021/06/10 01:51:14;;;;;;;14.18;12.77;;;16.00;1.00;;;;;;5076463;28;20103;-73
2021/06/10 01:53:41;;;;;;;13.60;12.30;;;16.00;1.00;;;;;;5077927;28;20032;-74
2021/06/10 01:56:08;;;;;;;14.43;12.07;;;15.90;1.00;;;;;;5075961;28;20013;-74
2021/06/10 01:58:36;;;;;;;16.77;12.40;;;15.90;1.00;;;;;;5077908;28;20035;-74
2021/06/10 02:01:03;;;;;;;13.77;12.40;;;15.80;1.00;;;;;;5088106;28;20020;-74
2021/06/10 02:03:29;;;;;;;13.73;12.40;;;15.80;1.00;;;;;;5087692;28;20041;-72
2021/06/10 02:05:57;;;;;;;18.63;14.27;;;16.00;1.00;;;;;;5098676;28;20375;-73
2021/06/10 02:08:22;;;;;;;15.43;13.93;;;16.00;1.00;;;;;;5098471;28;20027;-73
2021/06/10 02:10:51;;;;;;;16.55;14.70;;;16.00;1.00;;;;;;5097034;28;20023;-75
2021/06/10 02:13:19;;;;;;;15.63;14.20;;;16.00;1.00;;;;;;5096751;28;20020;-74
2021/06/10 02:15:45;;;;;;;12.95;11.75;;;15.90;1.00;;;;;;5095942;28;20020;-74
2021/06/10 02:18:12;;;;;;;11.55;10.55;;;15.90;1.00;;;;;;5094847;28;20067;-74
2021/06/10 02:20:38;;;;;;;10.90;9.80;;;15.80;1.00;;;;;;5096776;28;20028;-75
2021/06/10 02:23:05;;;;;;;9.80;8.98;;;15.80;1.00;;;;;;5096084;28;20411;-75
2021/06/10 02:25:31;;;;;;;11.02;9.70;;;15.70;1.00;;;;;;5088288;28;20071;-74
2021/06/10 02:27:57;;;;;;;12.07;9.60;;;15.70;1.00;;;;;;5083983;28;20392;-73
2021/06/10 02:30:23;;;;;;;10.80;9.82;;;15.60;1.00;;;;;;5075070;28;20059;-75
2021/06/10 02:32:48;;;;;;;10.60;9.63;;;15.60;1.00;;;;;;5075253;28;20499;-74
2021/06/10 02:35:16;;;;;;;10.95;9.93;;;15.60;1.00;;;;;;5074799;28;20029;-74
2021/06/10 02:37:46;;;;;;;9.77;8.77;;;15.50;1.00;;;;;;5074698;28;20078;-74
2021/06/10 02:40:14;;;;;;;10.73;9.82;;;15.50;1.00;;;;;;5073551;28;20042;-75
2021/06/10 02:42:41;;;;;;;11.48;10.00;;;15.40;1.00;;;;;;5073729;28;20052;-73
2021/06/10 02:45:08;;;;;;;10.70;9.77;;;15.50;1.00;;;;;;5073280;28;20025;-74
2021/06/10 02:47:34;;;;;;;10.38;9.50;;;15.50;1.00;;;;;;5076470;28;20032;-73
2021/06/10 02:50:04;;;;;;;10.80;9.88;;;15.50;1.00;;;;;;5085716;28;20039;-71
2021/06/10 02:52:31;;;;;;;10.63;9.73;;;15.50;1.00;;;;;;5103718;28;20024;-73
2021/06/10 02:54:57;;;;;;;10.82;9.48;;;15.50;1.00;;;;;;5117951;28;20047;-72
2021/06/10 02:57:24;;;;;;;12.02;9.18;;;15.60;1.00;;;;;;5109323;28;20044;-74
2021/06/10 02:59:51;;;;;;;9.52;8.63;;;15.60;1.00;;;;;;5098529;28;20021;-75
2021/06/10 03:02:19;;;;;;;10.48;9.65;;;15.70;1.00;;;;;;5095988;28;20027;-73
2021/06/10 03:04:46;;;;;;;12.65;11.25;;;15.60;1.00;;;;;;5094064;28;20065;-73
2021/06/10 03:07:16;;;;;;;12.13;10.85;;;15.70;1.00;;;;;;5093410;28;20084;-73
2021/06/10 03:09:44;;;;;;;10.97;10.00;;;15.70;1.00;;;;;;5102874;28;20032;-74
2021/06/10 03:12:11;;;;;;;10.00;9.10;;;15.80;1.00;;;;;;5104195;28;20790;-74
2021/06/10 03:14:40;;;;;;;10.82;9.85;;;15.80;1.00;;;;;;5099658;28;20024;-72
2021/06/10 03:17:07;;;;;;;11.40;9.10;;;15.80;1.00;;;;;;5100441;28;20026;-73
2021/06/10 03:19:33;;;;;;;9.70;8.75;;;15.80;1.00;;;;;;5100869;28;20024;-74
2021/06/10 03:21:59;;;;;;;10.45;9.43;;;15.80;1.00;;;;;;5100115;28;20039;-74
2021/06/10 03:24:25;;;;;;;11.25;10.35;;;15.80;1.00;;;;;;5100159;28;20059;-75
2021/06/10 03:26:51;;;;;;;13.73;11.27;;;15.90;1.00;;;;;;5091227;28;20024;-73
2021/06/10 03:29:18;;;;;;;11.52;10.43;;;15.90;1.00;;;;;;5095322;28;20512;-74
2021/06/10 03:31:45;;;;;;;13.27;11.88;;;16.00;1.00;;;;;;5103382;28;20044;-73
2021/06/10 03:34:12;;;;;;;12.40;11.15;;;16.10;1.00;;;;;;5099862;28;20027;-74
2021/06/10 03:36:39;;;;;;;13.85;11.02;;;16.00;1.00;;;;;;5099466;28;20023;-74
2021/06/10 03:39:05;;;;;;;14.25;12.80;;;15.80;1.00;;;;;;5099768;28;20024;-73
2021/06/10 03:41:32;;;;;;;15.18;13.65;;;15.70;1.00;;;;;;5100565;28;20024;-73
2021/06/10 03:43:59;;;;;;;14.57;12.98;;;15.70;1.00;;;;;;5100796;28;20096;-74
2021/06/10 03:46:25;;;;;;;15.63;14.32;;;15.70;1.00;;;;;;5099656;28;20024;-74
2021/06/10 03:48:51;;;;;;;17.10;14.07;;;15.60;1.00;;;;;;5095773;28;20016;-74
2021/06/10 03:51:19;;;;;;;15.65;14.07;;;15.60;1.00;;;;;;5100873;28;20016;-76
2021/06/10 03:53:46;;;;;;;15.07;13.57;;;15.60;1.00;;;;;;5098067;28;20022;-75
2021/06/10 03:56:12;;;;;;;15.18;13.70;;;15.70;1.00;;;;;;5098828;28;20154;-73
2021/06/10 03:58:37;;;;;;;13.45;12.25;;;15.70;1.00;;;;;;5099418;28;20066;-73
2021/06/10 04:01:03;;;;;;;13.82;12.45;;;15.80;1.00;;;;;;5096820;28;20040;-74
2021/06/10 04:03:29;;;;;;;17.30;10.95;;;15.90;1.00;;;;;;5088181;28;20103;-73
2021/06/10 04:05:55;;;;;;;12.98;11.65;;;16.00;1.00;;;;;;5095651;28;20055;-75
2021/06/10 04:08:21;;;;;;;12.63;11.52;;;16.10;1.00;;;;;;5097787;28;20445;-73
2021/06/10 04:10:46;;;;;;;12.15;10.93;;;16.30;1.00;;;;;;5095880;28;20103;-74
2021/06/10 04:13:12;;;;;;;12.15;11.13;;;16.50;1.00;;;;;;5102562;28;20483;-75
2021/06/10 04:15:38;;;;;;;12.40;11.27;;;16.70;1.00;;;;;;5103029;28;20024;-73
2021/06/10 04:18:03;;;;;;;11.57;10.38;;;16.80;1.00;;;;;;5098497;28;20020;-73
2021/06/10 04:20:29;;;;;;;12.75;11.48;;;17.20;1.00;;;;;;5099852;28;20065;-73
2021/06/10 04:22:55;;;;;;;11.52;10.43;;;17.70;1.00;;;;;;5100059;28;20324;-74
2021/06/10 04:25:20;;;;;;;11.73;10.60;;;18.00;1.00;;;;;;5124687;22;20049;-77
2021/06/10 04:27:46;;;;;;;12.15;10.95;;;18.10;1.00;;;;;;5055975;28;20017;-77
2021/06/10 04:30:16;;;;;;;11.25;9.90;;;18.20;1.00;;;;;;5056148;28;20029;-76
2021/06/10 04:32:46;;;;;;;12.47;11.20;;;17.90;1.00;;;;;;5037687;28;20107;-77
2021/06/10 04:35:14;;;;;;;10.43;9.55;;;17.70;1.00;;;;;;5038282;28;20025;-78
2021/06/10 04:37:42;;;;;;;12.52;10.05;;;17.60;1.00;;;;;;5055778;28;20013;-77
2021/06/10 04:40:08;;;;;;;10.98;9.85;;;17.50;1.00;;;;;;5062991;28;20273;-77
2021/06/10 04:42:37;;;;;;;9.82;9.02;;;17.60;1.00;;;;;;5058102;28;20116;-77
2021/06/10 04:45:10;;;;;;;11.82;9.25;;;18.00;1.00;;;;;;5058346;28;20035;-77
2021/06/10 04:47:38;;;;;;;9.88;8.93;;;18.10;1.00;;;;;;5040980;28;20507;-76
2021/06/10 04:50:06;;;;;;;9.35;8.45;;;18.50;1.00;;;;;;5037782;28;20108;-76
2021/06/10 04:52:32;;;;;;;9.25;8.45;;;18.90;99.90;;;;;;5055481;28;20553;-76
2021/06/10 04:54:58;;;;;;;9.43;8.48;;;19.20;99.90;;;;;;5037322;28;20060;-75
2021/06/10 04:57:24;;;;;;;9.27;8.45;;;19.40;99.90;;;;;;5037426;28;20032;-77
2021/06/10 04:59:49;;;;;;;8.57;7.88;;;19.60;99.90;;;;;;5055685;28;20029;-77
2021/06/10 05:02:21;;;;;;;8.55;7.72;;;19.70;99.90;;;;;;5057957;28;20029;-78
2021/06/10 05:04:49;;;;;;;8.77;7.97;;;20.00;99.90;;;;;;5042406;28;20021;-77
2021/06/10 05:07:18;;;;;;;8.43;7.72;;;20.10;99.90;;;;;;5076192;28;20031;-76
2021/06/10 05:09:44;;;;;;;9.48;8.57;;;20.10;99.90;;;;;;5046536;28;20033;-76
2021/06/10 05:12:13;;;;;;;8.73;7.93;;;20.40;99.90;;;;;;5067763;28;20017;-76
2021/06/10 05:14:39;;;;;;;8.50;7.70;;;21.20;99.90;;;;;;5070268;28;20088;-75
2021/06/10 05:17:04;;;;;;;8.05;7.25;;;21.80;99.90;;;;;;5056776;28;20022;-76
2021/06/10 05:19:30;;;;;;;8.70;7.88;;;21.60;99.90;;;;;;5060879;28;20028;-76
2021/06/10 05:21:59;;;;;;;8.63;7.95;;;22.30;99.90;;;;;;5077667;28;20040;-77
2021/06/10 05:24:28;;;;;;;8.07;7.35;;;22.00;99.90;;;;;;5048710;28;20029;-75
2021/06/10 05:26:56;;;;;;;7.65;6.85;;;22.20;13.60;;;;;;5054679;28;20395;-77
2021/06/10 05:29:29;;;;;;;8.77;7.28;;;23.00;99.90;;;;;;5037956;28;20055;-76
2021/06/10 05:31:55;;;;;;;8.40;7.22;;;23.40;99.90;;;;;;5037121;28;20029;-76
2021/06/10 05:34:21;;;;;;;9.50;7.70;;;24.00;1.00;;;;;;5043191;28;20036;-77
2021/06/10 05:36:47;;;;;;;8.32;7.15;;;23.80;99.90;;;;;;5037097;28;20025;-76
2021/06/10 05:39:12;;;;;;;8.25;7.45;;;24.30;47.60;;;;;;5036576;28;20040;-77
2021/06/10 05:41:38;;;;;;;8.13;7.32;;;24.10;1.00;;;;;;5036611;28;20496;-77
2021/06/10 05:44:05;;;;;;;10.80;7.97;;;23.70;11.40;;;;;;5054379;28;20032;-78
2021/06/10 05:46:31;;;;;;;8.27;7.57;;;23.60;88.50;;;;;;5054202;28;20032;-78
2021/06/10 05:48:56;;;;;;;8.10;7.30;;;23.80;1.00;;;;;;5036362;28;20021;-77
2021/06/10 05:51:24;;;;;;;8.68;7.95;;;23.60;99.90;;;;;;5054090;28;20086;-76
2021/06/10 05:53:50;;;;;;;8.43;7.63;;;24.00;99.90;;;;;;5054036;28;20045;-75
2021/06/10 05:56:16;;;;;;;9.38;8.35;;;24.20;99.90;;;;;;5036181;28;20056;-76
2021/06/10 05:58:42;;;;;;;9.07;8.38;;;23.60;99.90;;;;;;5036356;28;20017;-77
2021/06/10 06:01:07;;;;;;;8.40;7.53;;;23.90;99.90;;;;;;5036110;28;20029;-76
2021/06/10 06:03:33;;;;;;;10.65;8.40;;;24.60;95.70;;;;;;5054292;28;20055;-76
2021/06/10 06:05:59;;;;;;;9.50;7.63;;;24.90;1.00;;;;;;5053797;28;20029;-76
2021/06/10 06:08:25;;;;;;;8.85;8.13;;;24.40;99.90;;;;;;5035650;28;20035;-77
2021/06/10 06:10:55;;;;;;;8.98;7.63;;;24.20;1.40;;;;;;5035827;28;20028;-76
2021/06/10 06:13:34;;;;;;;9.32;8.52;;;24.20;73.60;;;;;;5036049;28;20052;-77
2021/06/10 06:16:05;;;;;;;9.27;8.38;;;24.50;1.00;;;;;;5035949;28;20116;-77
2021/06/10 06:18:31;;;;;;;8.15;7.45;;;23.80;36.30;;;;;;5041095;28;20115;-76
2021/06/10 06:20:57;;;;;;;14.80;8.23;;;24.20;1.00;;;;;;5041719;28;20037;-77
2021/06/10 06:23:22;;;;;;;8.40;7.60;;;23.30;99.90;;;;;;5056365;28;20116;-76
2021/06/10 06:25:48;;;;;;;8.70;8.00;;;23.40;99.90;;;;;;5036994;28;20033;-76
2021/06/10 06:28:14;;;;;;;8.75;7.85;;;23.30;1.00;;;;;;5035556;28;20032;-77
2021/06/10 06:30:40;;;;;;;8.45;7.75;;;23.20;99.90;;;;;;5054199;28;20392;-77
2021/06/10 06:33:08;;;;;;;11.30;10.18;;;22.50;34.30;;;;;;5054660;28;20021;-77
2021/06/10 06:35:34;;;;;;;12.13;8.98;;;22.00;1.00;;;;;;5038056;28;20025;-78
2021/06/10 06:38:00;;;;;;;12.98;8.30;;;21.50;91.50;;;;;;5055397;28;20029;-76
2021/06/10 06:40:26;;;;;;;8.90;7.97;;;21.90;99.90;;;;;;5037338;28;20025;-76
2021/06/10 06:42:53;;;;;;;10.13;9.00;;;22.30;1.00;;;;;;5036978;28;20439;-77
2021/06/10 06:45:18;;;;;;;10.18;9.27;;;22.10;1.00;;;;;;5054614;28;20052;-76
2021/06/10 06:47:44;;;;;;;9.32;8.50;;;22.30;1.00;;;;;;5055380;28;20028;-77
2021/06/10 06:50:13;;;;;;;13.18;9.07;;;21.90;99.90;;;;;;5067478;28;20029;-76
2021/06/10 06:52:39;;;;;;;14.40;8.82;;;22.20;1.00;;;;;;5057839;28;20036;-76
2021/06/10 06:55:04;;;;;;;11.93;9.38;;;22.50;99.90;;;;;;5055688;28;20029;-77
2021/06/10 06:57:30;;;;;;;12.18;9.05;;;22.50;1.00;;;;;;5042815;28;20092;-75
2021/06/10 06:59:56;;;;;;;12.32;9.90;;;22.40;99.90;;;;;;5061717;28;20056;-75
2021/06/10 07:02:22;;;;;;;9.85;8.50;;;22.60;1.00;;;;;;5043774;28;20017;-76
2021/06/10 07:04:48;;;;;;;11.77;7.80;;;22.20;99.90;;;;;;5052738;28;20009;-76
2021/06/10 07:07:13;;;;;;;9.35;8.40;;;22.00;99.90;;;;;;5036242;28;20396;-77
2021/06/10 07:09:39;;;;;;;10.57;9.50;;;22.20;99.90;;;;;;5036011;28;20036;-77
2021/06/10 07:12:06;;;;;;;10.30;8.35;;;22.90;99.90;;;;;;5052617;28;20101;-77
2021/06/10 07:14:31;;;;;;;9.88;8.85;;;23.00;99.90;;;;;;5054242;28;20017;-77
2021/06/10 07:16:58;;;;;;;8.57;7.40;;;23.30;10.00;;;;;;5035828;28;20082;-77
2021/06/10 07:19:24;;;;;;;9.45;8.50;;;23.30;18.50;;;;;;5035719;28;20055;-76
2021/06/10 07:21:51;;;;;;;8.98;8.10;;;23.50;99.90;;;;;;5037428;28;20028;-79
2021/06/10 07:24:17;;;;;;;9.43;8.52;;;23.30;99.90;;;;;;5037669;28;20120;-78
2021/06/10 07:26:44;;;;;;;9.20;8.30;;;23.40;1.00;;;;;;5039082;28;20060;-77
2021/06/10 07:29:12;;;;;;;8.43;7.28;;;23.60;99.90;;;;;;5037331;28;20092;-78
2021/06/10 07:31:37;;;;;;;7.68;6.97;;;23.60;99.90;;;;;;5036258;28;20036;-77
2021/06/10 07:34:06;;;;;;;10.13;8.35;;;23.70;99.90;;;;;;5036222;28;20148;-77
2021/06/10 07:36:33;;;;;;;8.38;7.57;;;23.50;99.90;;;;;;5035942;28;20017;-76
2021/06/10 07:39:01;;;;;;;8.73;7.45;;;23.70;99.90;;;;;;5053695;28;20392;-77
2021/06/10 07:41:30;;;;;;;8.15;7.45;;;23.70;99.90;;;;;;5052737;28;20051;-78
2021/06/10 07:43:56;;;;;;;9.15;8.00;;;23.70;99.90;;;;;;5035356;28;20033;-76
2021/06/10 07:46:21;;;;;;;8.85;8.15;;;23.60;99.90;;;;;;5052741;28;20021;-76
2021/06/10 07:48:50;;;;;;;9.20;8.38;;;23.30;99.90;;;;;;5053286;28;20162;-77
2021/06/10 07:51:16;;;;;;;9.88;9.00;;;23.40;99.90;;;;;;5034755;28;20396;-77
2021/06/10 07:53:42;;;;;;;8.82;8.02;;;23.40;99.90;;;;;;5034837;28;20017;-78
2021/06/10 07:56:08;;;;;;;10.02;8.27;;;23.30;99.90;;;;;;5054628;28;20025;-78
2021/06/10 07:58:35;;;;;;;10.82;9.05;;;23.30;99.90;;;;;;5059208;28;20017;-77
2021/06/10 08:01:01;;;;;;;10.10;7.78;;;22.90;99.90;;;;;;5057547;28;20028;-77
2021/06/10 08:03:26;;;;;;;10.52;8.05;;;22.70;99.90;;;;;;5043507;28;20043;-77
2021/06/10 08:05:52;;;;;;;12.05;8.85;;;23.10;99.90;;;;;;5059829;28;20025;-76
2021/06/10 08:08:19;;;;;;;10.23;9.23;;;23.60;99.90;;;;;;5042168;28;20058;-76
2021/06/10 08:10:46;;;;;;;9.85;8.45;;;23.80;93.50;;;;;;5060682;28;20025;-77
2021/06/10 08:13:13;;;;;;;9.50;8.45;;;24.10;15.60;;;;;;5057553;28;20029;-78
2021/06/10 08:15:39;;;;;;;8.82;8.00;;;24.20;1.00;;;;;;5039384;28;20035;-76
2021/06/10 08:18:05;;;;;;;9.60;8.00;;;24.10;1.00;;;;;;5038979;28;20021;-78
2021/06/10 08:20:32;;;;;;;10.00;9.00;;;24.10;1.00;;;;;;5039299;28;20124;-77
2021/06/10 08:22:59;;;;;;;10.43;9.55;;;24.10;1.00;;;;;;5049651;28;20057;-77
2021/06/10 08:25:29;;;;;;;10.18;9.27;;;24.40;1.00;;;;;;5079510;28;20047;-78
2021/06/10 08:28:01;;;;;;;10.00;8.97;;;24.30;1.00;;;;;;5065785;28;20392;-77
2021/06/10 08:30:27;;;;;;;10.38;9.30;;;23.90;1.00;;;;;;5075187;28;20303;-78
2021/06/10 08:32:53;;;;;;;9.60;8.80;;;23.60;1.00;;;;;;5048365;28;20029;-77
2021/06/10 08:35:19;;;;;;;9.00;8.30;;;23.90;1.00;;;;;;5060801;28;20017;-78
2021/06/10 08:37:44;;;;;;;10.40;9.50;;;24.50;1.00;;;;;;5061188;28;20025;-77
2021/06/10 08:40:13;;;;;;;10.13;8.10;;;24.60;99.90;;;;;;5043176;28;20176;-78
2021/06/10 08:42:43;;;;;;;9.00;8.20;;;24.40;99.90;;;;;;5060372;28;20029;-79
2021/06/10 08:45:14;;;;;;;9.57;8.60;;;24.20;1.00;;;;;;5061971;28;20025;-77
2021/06/10 08:47:42;;;;;;;;;;;24.70;99.90;;;;;;5046438;28;20499;-76
2021/06/10 08:50:14;;;;;;;10.10;9.20;;;24.90;99.90;;;;;;5043243;28;19970;-77
2021/06/10 08:52:40;;;;;;;12.68;9.27;;;24.50;99.90;;;;;;5070649;28;20036;-77
2021/06/10 08:55:07;;;;;;;9.55;8.60;;;24.50;99.90;;;;;;5056185;28;20029;-78
2021/06/10 08:57:35;;;;;;;10.38;9.10;;;24.90;99.90;;;;;;5075803;28;20037;-76
2021/06/10 09:00:01;;;;;;;9.52;8.60;;;25.10;99.90;;;;;;5057878;28;20021;-78
2021/06/10 09:02:27;;;;;;;11.75;8.60;;;25.20;99.90;;;;;;5065118;28;20150;-78
2021/06/10 09:04:59;;;;;;;8.98;8.18;;;25.50;99.90;;;;;;5046317;28;20041;-77
2021/06/10 09:07:39;;;;;;;9.10;8.30;;;25.70;99.90;;;;;;5043251;28;20515;-78
2021/06/10 09:10:07;;;;;;;9.70;8.80;;;25.30;99.90;;;;;;5045399;28;20022;-77
2021/06/10 09:12:53;;;;;;;10.40;8.70;;;24.90;99.90;;;;;;5026926;28;20049;-77
2021/06/10 09:15:25;;;;;;;11.55;8.80;;;24.90;99.90;;;;;;5026938;28;20037;-78
2021/06/10 09:17:51;;;;;;;9.88;9.07;;;25.20;99.90;;;;;;5026112;28;20107;-78
2021/06/10 09:20:20;;;;;;;11.23;8.50;;;25.70;99.90;;;;;;5028798;28;20029;-78
2021/06/10 09:22:48;;;;;;;9.68;8.77;;;25.90;99.90;;;;;;5061855;28;20051;-77
2021/06/10 09:25:19;;;;;;;11.88;8.65;;;25.80;99.90;;;;;;5045799;28;20051;-77
2021/06/10 09:27:56;;;;;;;9.48;8.57;;;25.80;99.90;;;;;;5044518;28;20029;-77
2021/06/10 09:30:43;;;;;;;11.65;10.45;;;26.20;99.90;;;;;;5045343;28;20032;-76
2021/06/10 09:33:20;;;;;;;9.77;8.98;;;25.80;99.90;;;;;;5045476;28;20029;-76
2021/06/10 09:35:47;;;;;;;10.90;10.00;;;25.90;99.90;;;;;;5063752;28;20047;-76
2021/06/10 09:38:17;;;;;;;11.02;9.30;;;25.90;99.90;;;;;;5046159;28;20108;-76
2021/06/10 09:40:43;;;;;;;10.55;9.65;;;25.70;99.90;;;;;;5045079;28;20029;-78
2021/06/10 09:43:10;;;;;;;10.05;9.15;;;26.00;99.90;;;;;;5061145;28;20028;-77
2021/06/10 09:45:37;;;;;;;9.88;8.98;;;26.20;99.90;;;;;;5041465;28;20025;-78
2021/06/10 09:48:07;;;;;;;9.10;8.40;;;26.40;99.90;;;;;;5041545;28;20056;-77
2021/06/10 09:50:45;;;;;;;10.32;8.60;;;26.50;99.90;;;;;;5060180;28;20025;-76
2021/06/10 09:53:16;;;;;;;10.68;9.73;;;26.50;99.90;;;;;;5061882;28;20021;-78
2021/06/10 09:55:49;;;;;;;11.50;10.38;;;26.30;99.90;;;;;;5049318;28;20021;-76
2021/06/10 09:58:15;;;;;;;10.32;9.43;;;25.80;99.90;;;;;;5055554;28;20017;-76
2021/06/10 10:00:49;;;;;;;11.35;10.43;;;25.90;99.90;;;;;;5057576;28;20047;-76
2021/06/10 10:03:24;;;;;;;11.55;10.65;;;26.20;99.90;;;;;;5057630;28;20021;-76
2021/06/10 10:05:51;;;;;;;11.95;10.98;;;25.90;99.90;;;;;;5060195;28;20040;-77
2021/06/10 10:08:17;;;;;;;11.82;10.93;;;26.00;99.90;;;;;;5061627;28;20064;-78
2021/06/10 10:10:43;;;;;;;13.98;12.68;;;25.70;99.90;;;;;;5077912;28;20070;-77
2021/06/10 10:13:10;;;;;;;10.68;9.77;;;25.60;99.90;;;;;;5076005;28;20029;-77
2021/06/10 10:15:37;;;;;;;11.20;10.10;;;26.20;99.90;;;;;;5060619;28;20020;-79
2021/06/10 10:18:03;;;;;;;10.70;9.60;;;26.50;99.90;;;;;;5077825;28;20073;-77
2021/06/10 10:20:29;;;;;;;12.07;10.88;;;26.30;99.90;;;;;;5060650;28;20051;-78
2021/06/10 10:22:58;;;;;;;10.63;9.73;;;26.10;99.90;;;;;;5061281;28;20009;-77
2021/06/10 10:25:24;;;;;;;11.75;10.65;;;26.20;99.90;;;;;;5077774;28;20038;-78
2021/06/10 10:27:50;;;;;;;12.50;11.50;;;26.30;99.90;;;;;;5060406;28;20055;-77
2021/06/10 10:30:20;;;;;;;13.13;11.98;;;26.00;99.90;;;;;;5061648;28;20056;-77
2021/06/10 10:32:46;;;;;;;12.55;11.38;;;26.40;99.90;;;;;;5056994;28;20086;-77
2021/06/10 10:35:26;;;;;;;12.48;11.32;;;26.30;99.90;;;;;;5058864;28;20028;-76
2021/06/10 10:37:54;;;;;;;11.80;10.70;;;25.90;99.90;;;;;;5058076;28;20091;-76
2021/06/10 10:40:24;;;;;;;11.13;10.23;;;26.30;99.90;;;;;;5055725;28;20032;-75
2021/06/10 10:42:54;;;;;;;11.65;10.65;;;26.30;99.90;;;;;;5058500;28;20029;-76
2021/06/10 10:45:25;;;;;;;11.60;10.57;;;26.50;99.90;;;;;;5058460;28;20037;-76
2021/06/10 10:48:02;;;;;;;12.13;11.13;;;27.00;99.90;;;;;;5056000;28;20131;-76
2021/06/10 10:50:37;;;;;;;11.32;10.32;;;26.90;99.90;;;;;;5077569;28;20128;-78
2021/06/10 10:53:08;;;;;;;10.65;9.73;;;26.10;99.90;;;;;;5058173;28;20032;-76
2021/06/10 10:55:34;;;;;;;11.55;10.65;;;26.70;99.90;;;;;;5076321;28;20111;-77
2021/06/10 10:58:02;;;;;;;10.00;9.20;;;26.70;99.90;;;;;;5074496;28;20039;-76
2021/06/10 11:01:10;;;;;;;10.18;9.32;;;26.40;96.90;;;;;;5076322;28;20037;-77
2021/06/10 11:03:41;;;;;;;10.35;9.40;;;26.00;78.20;;;;;;4992730;28;20023;-78
2021/06/10 11:06:22;;;;;;;;;;;25.70;90.10;;;;;;4981310;28;20029;-76
2021/06/10 11:09:14;;;;;;;10.48;9.68;;;26.10;82.40;;;;;;5035396;28;19920;-77
2021/06/10 11:12:00;;;;;;;11.15;10.25;;;26.40;85.80;;;;;;5038486;28;20074;-76
2021/06/10 11:14:37;;;;;;;12.77;9.48;;;26.70;74.00;;;;;;5050437;28;20033;-76
2021/06/10 11:17:29;;;;;;;9.93;9.00;;;26.80;79.10;;;;;;5068096;28;20021;-76
2021/06/10 11:19:58;;;;;;;10.10;9.10;;;27.30;68.40;;;;;;5062441;28;20028;-77
2021/06/10 11:22:38;;;;;;;10.45;9.55;;;27.60;59.20;;;;;;5059336;28;20028;-77
2021/06/10 11:25:08;;;;;;;9.50;8.55;;;27.80;49.10;;;;;;5058262;28;20040;-77
2021/06/10 11:27:47;;;;;;;8.85;8.15;;;28.00;36.60;;;;;;5062406;28;20033;-76
2021/06/10 11:30:23;;;;;;;9.38;8.57;;;27.90;30.00;;;;;;5064806;28;20106;-76
2021/06/10 11:32:56;;;;;;;9.93;9.13;;;27.80;24.70;;;;;;5077399;28;20051;-77
2021/06/10 11:35:43;;;;;;;9.32;8.63;;;27.50;24.20;;;;;;5073681;28;20036;-77
2021/06/10 11:38:26;;;;;;;13.85;10.25;;;26.80;26.40;;;;;;5065443;28;20089;-77
2021/06/10 11:41:10;;;;;;;24.83;10.27;;;26.20;30.30;;;;;;5061198;28;20080;-75
2021/06/10 11:43:40;;;;;;;11.70;10.60;;;26.10;38.00;;;;;;5066207;28;20025;-76
2021/06/10 11:46:06;;;;;;;10.75;9.82;;;26.60;32.00;;;;;;5046061;28;20737;-75
2021/06/10 11:48:39;;;;;;;11.23;10.10;;;26.50;33.90;;;;;;5061232;28;20025;-76
2021/06/10 11:51:07;;;;;;;10.73;9.88;;;26.70;33.00;;;;;;5067112;28;20021;-75
2021/06/10 11:53:33;;;;;;;9.70;8.85;;;26.90;30.90;;;;;;5052944;28;20033;-74
2021/06/10 11:55:59;;;;;;;8.65;7.85;;;27.30;28.30;;;;;;5067788;28;20031;-75
2021/06/10 11:58:28;;;;;;;10.05;9.25;;;27.40;17.00;;;;;;5054847;28;20032;-77
2021/06/10 12:00:54;;;;;;;8.38;7.78;;;27.30;17.50;;;;;;5081075;28;20108;-77
2021/06/10 12:03:21;;;;;;;9.10;8.40;;;27.20;18.10;;;;;;5046948;28;20090;-77
2021/06/10 12:05:50;;;;;;;10.00;9.10;;;26.90;18.00;;;;;;5062857;28;20028;-76
2021/06/10 12:08:26;;;;;;;9.63;8.88;;;26.70;24.10;;;;;;5070349;28;20050;-76
2021/06/10 12:10:57;;;;;;;10.07;9.27;;;27.10;22.40;;;;;;5066187;28;20040;-76
2021/06/10 12:13:32;;;;;;;10.05;9.25;;;27.10;22.70;;;;;;5065608;28;20024;-75
2021/06/10 12:16:00;;;;;;;8.90;8.20;;;27.30;21.40;;;;;;5068354;28;20151;-76
2021/06/10 12:18:26;;;;;;;10.38;9.35;;;27.70;19.90;;;;;;5064548;28;20397;-77
2021/06/10 12:20:55;;;;;;;9.45;8.65;;;27.70;11.90;;;;;;5060781;28;20031;-77
2021/06/10 12:23:48;;;;;;;8.40;7.70;;;27.80;12.80;;;;;;5070015;28;20039;-77
2021/06/10 12:26:16;;;;;;;8.98;8.27;;;28.30;2.40;;;;;;5056010;28;20051;-77
2021/06/10 12:28:57;;;;;;;9.23;7.90;;;28.30;1.00;;;;;;5052226;28;20396;-76
2021/06/10 12:31:27;;;;;;;8.85;7.95;;;27.70;1.00;;;;;;5060103;28;20025;-77
2021/06/10 12:33:59;;;;;;;8.90;8.10;;;27.10;1.00;;;;;;5072931;28;20017;-76
2021/06/10 12:36:31;;;;;;;7.80;6.95;;;27.00;1.00;;;;;;5060885;28;20025;-75
2021/06/10 12:39:03;;;;;;;7.35;6.85;;;27.00;1.00;;;;;;5086979;28;20016;-74
2021/06/10 12:41:36;;;;;;;6.60;6.05;;;27.00;1.00;;;;;;5093408;28;20017;-75
2021/06/10 12:44:08;;;;;;;7.07;6.57;;;27.40;1.00;;;;;;5079152;28;20028;-78
2021/06/10 12:46:47;;;;;;;6.45;6.03;;;27.90;1.00;;;;;;5089638;28;20020;-76
2021/06/10 12:49:13;;;;;;;6.32;5.15;;;27.60;1.00;;;;;;5079116;28;20070;-76
2021/06/10 12:51:44;;;;;;;8.57;5.65;;;27.80;1.00;;;;;;5060344;28;20028;-76